Terminal Aerodrome Forecast
Issued by NWS

Home | Current Version | Previous Version | Text Only | Print | Product List | Glossary On
Versions: 1 2 3 4 5 6 7 8 9 10 11 12 13
369
FTUS44 KTSA 240520
TAFRVS
TAF
KRVS 240520Z 2406/2506 17006KT P6SM SKC
     FM241500 18010G17KT P6SM SKC
     FM241700 20016G26KT P6SM FEW250
     FM250100 20012KT P6SM FEW250=

USA.gov is the U.S. government's official web portal to all federal, state and local government web resources and services.